Time;durP1;ratioP1;P1;durP2;ratioP2;P2;SDS_P1;SDS_P2;PMS_P1;PMS_P2;Temp;Humidity;BMP_temperature;BMP_pressure;BME280_temperature;BME280_humidity;BME280_pressure;Samples;Min_cycle;Max_cycle;Signal;HPM_P1;HPM_P2
2022/09/26 00:00:56;;;;;;;;;;;;;;;;;;5086956;28;20317;-66
2022/09/26 00:03:21;;;;;;;;;;;;;;;;;;5087585;28;19920;-67
2022/09/26 00:05:46;;;;;;;;;;;;;;;;;;5087534;28;19920;-67
2022/09/26 00:08:11;;;;;;;;;;;;;;;;;;5083535;28;19935;-67
2022/09/26 00:10:36;;;;;;;;;;;;;;;;;;5089139;28;20295;-67
2022/09/26 00:13:01;;;;;;;;;;;;;;;;;;5086452;28;20444;-66
2022/09/26 00:15:26;;;;;;;;;;;;;;;;;;5088357;28;19927;-67
2022/09/26 00:17:51;;;;;;;;;;;;;;;;;;5086141;28;19920;-67
2022/09/26 00:20:16;;;;;;;;;;;;;;;;;;5087169;28;19914;-66
2022/09/26 00:22:42;;;;;;;;;;;;;;;;;;5089044;28;20423;-67
2022/09/26 00:25:07;;;;;;;;;;;;;;;;;;5087622;28;20011;-67
2022/09/26 00:27:32;;;;;;;;;;;;;;;;;;5085927;28;20007;-67
2022/09/26 00:29:57;;;;;;;;;;;;;;;;;;5088533;28;20005;-66
2022/09/26 00:32:22;;;;;;;;;;;;;;;;;;5062838;28;19917;-67
2022/09/26 00:34:48;;;;;;;;;;;;;;;;;;5081248;28;19916;-67
2022/09/26 00:37:13;;;;;;;;;;;;;;;;;;5090327;28;20262;-67
2022/09/26 00:39:38;;;;;;;;;;;;;;;;;;5083085;28;19978;-67
2022/09/26 00:42:03;;;;;;;;;;;;;;;;;;5088169;28;19913;-67
2022/09/26 00:44:28;;;;;;;;;;;;;;;;;;5086595;28;19967;-66
2022/09/26 00:46:53;;;;;;;;;;;;;;;;;;5084647;28;19920;-66
2022/09/26 00:49:18;;;;;;;;;;;;;;;;;;5087153;28;19916;-67
2022/09/26 00:51:43;;;;;;;;;;;;;;;;;;5082394;28;20277;-66
2022/09/26 00:54:10;;;;;;;;;;;;;;;;;;5087391;28;19912;-66
2022/09/26 00:56:35;;;;;;;;;;;;;;;;;;5086184;28;19916;-67
2022/09/26 00:59:00;;;;;;;;;;;;;;;;;;5090500;28;19912;-67
2022/09/26 01:01:25;;;;;;;;;;;;;;;;;;5091600;28;19947;-67
2022/09/26 01:03:50;;;;;;;;;;;;;;;;;;5087636;28;19980;-67
2022/09/26 01:06:16;;;;;;;;;;;;;;;;;;5085440;28;21304;-66
2022/09/26 01:08:41;;;;;;;;;;;;;;;;;;5091186;28;20427;-67
2022/09/26 01:11:06;;;;;;;;;;;;;;;;;;5090884;28;20384;-67
2022/09/26 01:13:31;;;;;;;;;;;;;;;;;;5091125;28;19912;-66
2022/09/26 01:15:56;;;;;;;;;;;;;;;;;;5088900;28;20249;-67
2022/09/26 01:18:21;;;;;;;;;;;;;;;;;;5092290;28;19920;-67
2022/09/26 01:20:46;;;;;;;;;;;;;;;;;;5090304;28;19912;-67
2022/09/26 01:23:12;;;;;;;;;;;;;;;;;;5089884;28;20579;-67
2022/09/26 01:25:37;;;;;;;;;;;;;;;;;;5092083;28;19912;-67
2022/09/26 01:28:02;;;;;;;;;;;;;;;;;;5093293;28;19912;-66
2022/09/26 01:30:27;;;;;;;;;;;;;;;;;;5091700;28;20479;-67
2022/09/26 01:32:52;;;;;;;;;;;;;;;;;;5089142;28;20031;-67
2022/09/26 01:35:17;;;;;;;;;;;;;;;;;;5089207;28;20421;-66
2022/09/26 01:37:43;;;;;;;;;;;;;;;;;;5089965;28;20375;-66
2022/09/26 01:40:09;;;;;;;;;;;;;;;;;;5091519;28;19912;-67
2022/09/26 01:42:34;;;;;;;;;;;;;;;;;;5088911;28;19916;-66
2022/09/26 01:44:59;;;;;;;;;;;;;;;;;;5089931;28;20090;-66
2022/09/26 01:47:24;;;;;;;;;;;;;;;;;;5090361;28;19916;-66
2022/09/26 01:49:49;;;;;;;;;;;;;;;;;;5091510;28;19985;-66
2022/09/26 01:52:14;;;;;;;;;;;;;;;;;;5088471;28;19921;-66
2022/09/26 01:54:39;;;;;;;;;;;;;;;;;;5088552;28;20010;-66
2022/09/26 01:57:05;;;;;;;;;;;;;;;;;;5086949;28;19985;-66
2022/09/26 01:59:30;;;;;;;;;;;;;;;;;;5090493;28;19916;-67
2022/09/26 02:01:55;;;;;;;;;;;;;;;;;;5089477;28;19916;-66
2022/09/26 02:04:20;;;;;;;;;;;;;;;;;;5087642;28;20548;-67
2022/09/26 02:06:46;;;;;;;;;;;;;;;;;;5089828;28;19916;-66
2022/09/26 02:09:11;;;;;;;;;;;;;;;;;;5087020;28;19999;-67
2022/09/26 02:11:36;;;;;;;;;;;;;;;;;;5091006;28;20000;-66
2022/09/26 02:14:02;;;;;;;;;;;;;;;;;;5089737;28;20356;-66
2022/09/26 02:16:27;;;;;;;;;;;;;;;;;;5087000;28;19958;-67
2022/09/26 02:18:52;;;;;;;;;;;;;;;;;;5085320;28;20430;-66
2022/09/26 02:21:18;;;;;;;;;;;;;;;;;;5089252;28;19912;-66
2022/09/26 02:23:43;;;;;;;;;;;;;;;;;;5091500;28;19954;-67
2022/09/26 02:26:08;;;;;;;;;;;;;;;;;;5089465;28;19967;-66
2022/09/26 02:28:33;;;;;;;;;;;;;;;;;;5085405;28;19912;-66
2022/09/26 02:31:00;;;;;;;;;;;;;;;;;;5084112;28;19919;-66
2022/09/26 02:33:25;;;;;;;;;;;;;;;;;;5088136;28;19920;-67
2022/09/26 02:35:53;;;;;;;;;;;;;;;;;;5086367;28;19920;-67
2022/09/26 02:38:18;;;;;;;;;;;;;;;;;;5086734;28;20382;-66
2022/09/26 02:40:43;;;;;;;;;;;;;;;;;;5089617;28;19912;-67
2022/09/26 02:43:08;;;;;;;;;;;;;;;;;;5089743;28;19919;-66
2022/09/26 02:45:33;;;;;;;;;;;;;;;;;;5089239;28;19918;-67
2022/09/26 02:47:58;;;;;;;;;;;;;;;;;;5086531;28;19912;-67
2022/09/26 02:50:24;;;;;;;;;;;;;;;;;;5083348;28;19922;-66
2022/09/26 02:52:49;;;;;;;;;;;;;;;;;;5087161;28;20007;-66
2022/09/26 02:55:15;;;;;;;;;;;;;;;;;;5090111;28;19912;-66
2022/09/26 02:57:40;;;;;;;;;;;;;;;;;;5089645;28;19941;-66
2022/09/26 03:00:06;;;;;;;;;;;;;;;;;;5087839;28;19955;-66
2022/09/26 03:02:31;;;;;;;;;;;;;;;;;;5086211;28;19951;-67
2022/09/26 03:04:56;;;;;;;;;;;;;;;;;;5085675;28;19970;-66
2022/09/26 03:07:21;;;;;;;;;;;;;;;;;;5080135;28;19920;-66
2022/09/26 03:09:46;;;;;;;;;;;;;;;;;;5082317;28;19932;-66
2022/09/26 03:12:11;;;;;;;;;;;;;;;;;;5087386;28;19912;-66
2022/09/26 03:14:36;;;;;;;;;;;;;;;;;;5087969;28;19920;-66
2022/09/26 03:17:01;;;;;;;;;;;;;;;;;;5084287;28;19924;-66
2022/09/26 03:19:26;;;;;;;;;;;;;;;;;;5088296;28;19915;-66
2022/09/26 03:21:52;;;;;;;;;;;;;;;;;;5081285;28;19948;-66
2022/09/26 03:24:17;;;;;;;;;;;;;;;;;;5088954;28;19916;-66
2022/09/26 03:26:42;;;;;;;;;;;;;;;;;;5084305;28;19946;-66
2022/09/26 03:29:07;;;;;;;;;;;;;;;;;;5087655;28;19920;-66
2022/09/26 03:31:32;;;;;;;;;;;;;;;;;;5084296;28;19916;-66
2022/09/26 03:33:57;;;;;;;;;;;;;;;;;;5088120;28;20265;-66
2022/09/26 03:36:22;;;;;;;;;;;;;;;;;;5086507;28;20295;-67
2022/09/26 03:38:47;;;;;;;;;;;;;;;;;;5087468;28;19938;-67
2022/09/26 03:41:13;;;;;;;;;;;;;;;;;;5087433;28;19923;-67
2022/09/26 03:43:42;;;;;;;;;;;;;;;;;;5088037;28;19912;-66
2022/09/26 03:46:07;;;;;;;;;;;;;;;;;;5083967;28;19923;-66
2022/09/26 03:48:32;;;;;;;;;;;;;;;;;;5089570;28;20273;-67
2022/09/26 03:50:57;;;;;;;;;;;;;;;;;;5082044;28;19964;-66
2022/09/26 03:53:23;;;;;;;;;;;;;;;;;;5088962;28;19912;-66
2022/09/26 03:55:48;;;;;;;;;;;;;;;;;;5083283;28;19923;-66
2022/09/26 03:58:14;;;;;;;;;;;;;;;;;;5086987;28;19912;-66
2022/09/26 04:00:39;;;;;;;;;;;;;;;;;;5085722;28;19924;-66
2022/09/26 04:03:04;;;;;;;;;;;;;;;;;;5083278;28;19916;-66
2022/09/26 04:05:29;;;;;;;;;;;;;;;;;;5087189;28;19916;-66
2022/09/26 04:07:54;;;;;;;;;;;;;;;;;;5086049;28;20224;-66
2022/09/26 04:10:20;;;;;;;;;;;;;;;;;;5087668;28;19970;-66
2022/09/26 04:12:45;;;;;;;;;;;;;;;;;;5086578;28;20343;-66
2022/09/26 04:15:10;;;;;;;;;;;;;;;;;;5087089;28;19939;-66
2022/09/26 04:17:35;;;;;;;;;;;;;;;;;;5089014;28;19974;-66
2022/09/26 04:20:00;;;;;;;;;;;;;;;;;;5081990;28;19951;-66
2022/09/26 04:22:26;;;;;;;;;;;;;;;;;;5086537;28;19982;-66
2022/09/26 04:24:52;;;;;;;;;;;;;;;;;;5088168;28;19924;-66
2022/09/26 04:27:17;;;;;;;;;;;;;;;;;;5083024;28;20434;-66
2022/09/26 04:29:43;;;;;;;;;;;;;;;;;;5086075;28;20372;-66
2022/09/26 04:32:09;;;;;;;;;;;;;;;;;;5082685;28;19928;-66
2022/09/26 04:34:34;;;;;;;;;;;;;;;;;;5089775;28;19908;-66
2022/09/26 04:36:59;;;;;;;;;;;;;;;;;;5081910;28;20422;-66
2022/09/26 04:39:24;;;;;;;;;;;;;;;;;;5085248;28;19918;-66
2022/09/26 04:41:52;;;;;;;;;;;;;;;;;;5087924;28;20283;-66
2022/09/26 04:44:17;;;;;;;;;;;;;;;;;;5075951;28;19908;-66
2022/09/26 04:46:43;;;;;;;;;;;;;;;;;;5085955;28;19912;-66
2022/09/26 04:49:08;;;;;;;;;;;;;;;;;;5093558;28;19927;-66
2022/09/26 04:51:33;;;;;;;;;;;;;;;;;;5083524;28;19920;-66
2022/09/26 04:53:58;;;;;;;;;;;;;;;;;;5087890;28;19919;-66
2022/09/26 04:56:23;;;;;;;;;;;;;;;;;;5092168;28;19912;-66
2022/09/26 04:58:48;;;;;;;;;;;;;;;;;;5093913;28;19964;-66
2022/09/26 05:01:14;;;;;;;;;;;;;;;;;;5091086;28;20451;-66
2022/09/26 05:03:40;;;;;;;;;;;;;;;;;;5087880;28;19920;-66
2022/09/26 05:06:07;;;;;;;;;;;;;;;;;;5089533;28;19912;-66
2022/09/26 05:08:32;;;;;;;;;;;;;;;;;;5087320;28;19927;-66
2022/09/26 05:10:58;;;;;;;;;;;;;;;;;;5080434;28;19927;-66
2022/09/26 05:13:23;;;;;;;;;;;;;;;;;;5085244;28;20030;-66
2022/09/26 05:15:49;;;;;;;;;;;;;;;;;;5088408;28;19912;-66
2022/09/26 05:18:14;;;;;;;;;;;;;;;;;;5090582;28;20029;-66
2022/09/26 05:20:39;;;;;;;;;;;;;;;;;;5087127;28;19920;-66
2022/09/26 05:23:04;;;;;;;;;;;;;;;;;;5080500;28;20400;-66
2022/09/26 05:28:14;;;;;;;;;;;;;;;;;;5089769;28;19959;-66
2022/09/26 05:30:39;;;;;;;;;;;;;;;;;;5086497;28;19951;-66
2022/09/26 05:33:04;;;;;;;;;;;;;;;;;;5087471;28;19947;-66
2022/09/26 05:35:33;;;;;;;;;;;;;;;;;;5089452;28;20596;-66
2022/09/26 05:37:58;;;;;;;;;;;;;;;;;;5085672;28;19912;-67
2022/09/26 05:43:07;;;;;;;;;;;;;;;;;;5080541;28;19967;-66
2022/09/26 05:45:32;;;;;;;;;;;;;;;;;;5085797;28;19920;-65
2022/09/26 05:47:57;;;;;;;;;;;;;;;;;;5080417;28;19977;-66
2022/09/26 05:50:23;;;;;;;;;;;;;;;;;;5089357;28;19977;-66
2022/09/26 05:52:49;;;;;;;;;;;;;;;;;;5088149;28;19944;-67
2022/09/26 05:55:14;;;;;;;;;;;;;;;;;;5091925;28;20325;-66
2022/09/26 05:57:39;;;;;;;;;;;;;;;;;;5092132;28;19931;-66
2022/09/26 06:00:04;;;;;;;;;;;;;;;;;;5092199;28;20241;-66
2022/09/26 06:02:29;;;;;;;;;;;;;;;;;;5087452;28;20308;-66
2022/09/26 06:04:55;;;;;;;;;;;;;;;;;;5090389;28;20383;-66
2022/09/26 06:07:21;;;;;;;;;;;;;;;;;;5090262;28;19966;-66
2022/09/26 06:09:46;;;;;;;;;;;;;;;;;;5091740;28;20029;-66
2022/09/26 06:12:11;;;;;;;;;;;;;;;;;;5092084;28;19963;-66
2022/09/26 06:14:36;;;;;;;;;;;;;;;;;;5091148;28;20291;-66
2022/09/26 06:17:01;;;;;;;;;;;;;;;;;;5085980;28;20320;-66
2022/09/26 06:19:26;;;;;;;;;;;;;;;;;;5090262;28;19920;-66
2022/09/26 06:21:51;;;;;;;;;;;;;;;;;;5092230;28;19919;-66
2022/09/26 06:24:18;;;;;;;;;;;;;;;;;;5092300;28;19912;-66
2022/09/26 06:26:43;;;;;;;;;;;;;;;;;;5090997;28;19920;-66
2022/09/26 06:29:08;;;;;;;;;;;;;;;;;;5091232;28;19916;-66
2022/09/26 06:31:33;;;;;;;;;;;;;;;;;;5091263;28;19912;-66
2022/09/26 06:34:00;;;;;;;;;;;;;;;;;;5090204;28;19999;-66
2022/09/26 06:36:25;;;;;;;;;;;;;;;;;;5091603;28;19912;-66
2022/09/26 06:38:50;;;;;;;;;;;;;;;;;;5092105;28;19909;-66
2022/09/26 06:41:15;;;;;;;;;;;;;;;;;;5091817;28;19999;-66
2022/09/26 06:43:42;;;;;;;;;;;;;;;;;;5088988;28;19947;-66
2022/09/26 06:46:10;;;;;;;;;;;;;;;;;;5087749;28;20313;-66
2022/09/26 06:48:35;;;;;;;;;;;;;;;;;;5092219;28;19938;-66
2022/09/26 06:51:01;;;;;;;;;;;;;;;;;;5090391;28;19919;-66
2022/09/26 06:53:26;;;;;;;;;;;;;;;;;;5091736;28;19965;-66
2022/09/26 06:55:51;;;;;;;;;;;;;;;;;;5090867;28;20356;-66
2022/09/26 06:58:16;;;;;;;;;;;;;;;;;;5091324;28;20006;-66
2022/09/26 07:00:41;;;;;;;;;;;;;;;;;;5091611;28;20002;-66
2022/09/26 07:03:07;;;;;;;;;;;;;;;;;;5089789;28;19920;-66
2022/09/26 07:05:32;;;;;;;;;;;;;;;;;;5090692;28;19931;-66
2022/09/26 07:07:57;;;;;;;;;;;;;;;;;;5091080;28;19908;-66
2022/09/26 07:10:23;;;;;;;;;;;;;;;;;;5091217;28;19919;-66
2022/09/26 07:12:48;;;;;;;;;;;;;;;;;;5084507;28;19916;-66
2022/09/26 07:15:13;;;;;;;;;;;;;;;;;;5089317;28;19939;-66
2022/09/26 07:17:38;;;;;;;;;;;;;;;;;;5088309;28;19915;-66
2022/09/26 07:20:04;;;;;;;;;;;;;;;;;;5088718;28;19955;-66
2022/09/26 07:22:29;;;;;;;;;;;;;;;;;;5090948;28;19908;-66
2022/09/26 07:24:54;;;;;;;;;;;;;;;;;;5087049;28;19916;-66
2022/09/26 07:27:19;;;;;;;;;;;;;;;;;;5086050;28;19912;-66
2022/09/26 07:29:47;;;;;;;;;;;;;;;;;;5090877;28;19919;-66
2022/09/26 07:32:12;;;;;;;;;;;;;;;;;;5072625;28;20288;-66
2022/09/26 07:34:39;;;;;;;;;;;;;;;;;;5090161;28;20429;-66
2022/09/26 07:37:04;;;;;;;;;;;;;;;;;;5089176;28;19923;-67
2022/09/26 07:39:29;;;;;;;;;;;;;;;;;;5085090;28;19912;-66
2022/09/26 07:41:54;;;;;;;;;;;;;;;;;;5088664;28;20667;-66
2022/09/26 07:44:20;;;;;;;;;;;;;;;;;;5089437;28;19912;-66
2022/09/26 07:52:13;;;;;;;;;;;;;;;;;;5084630;28;19958;-66
2022/09/26 07:54:38;;;;;;;;;;;;;;;;;;5085080;28;20451;-66
2022/09/26 07:57:04;;;;;;;;;;;;;;;;;;5090747;28;20360;-66
2022/09/26 07:59:34;;;;;;;;;;;;;;;;;;5080586;28;19916;-66
2022/09/26 08:01:59;;;;;;;;;;;;;;;;;;5086750;28;19942;-67
2022/09/26 08:04:24;;;;;;;;;;;;;;;;;;5084498;28;20029;-66
2022/09/26 08:06:50;;;;;;;;;;;;;;;;;;5089740;28;20005;-66
2022/09/26 08:09:15;;;;;;;;;;;;;;;;;;5090064;28;20407;-66
2022/09/26 08:11:40;;;;;;;;;;;;;;;;;;5086948;28;19916;-66
2022/09/26 08:14:05;;;;;;;;;;;;;;;;;;5087478;28;19916;-66
2022/09/26 08:16:31;;;;;;;;;;;;;;;;;;5086016;28;19952;-66
2022/09/26 08:18:57;;;;;;;;;;;;;;;;;;5093155;28;19912;-66
2022/09/26 08:21:22;;;;;;;;;;;;;;;;;;5094091;28;20352;-66
2022/09/26 08:23:47;;;;;;;;;;;;;;;;;;5093183;28;19908;-66
2022/09/26 08:26:13;;;;;;;;;;;;;;;;;;5094614;28;19955;-66
2022/09/26 08:28:38;;;;;;;;;;;;;;;;;;5087178;28;19908;-66
2022/09/26 08:31:03;;;;;;;;;;;;;;;;;;5093747;28;19916;-66
2022/09/26 08:33:29;;;;;;;;;;;;;;;;;;5088592;28;19916;-66
2022/09/26 08:35:54;;;;;;;;;;;;;;;;;;5090005;28;20002;-66
2022/09/26 08:38:20;;;;;;;;;;;;;;;;;;5093282;28;19954;-66
2022/09/26 08:40:45;;;;;;;;;;;;;;;;;;5093652;28;19920;-66
2022/09/26 08:43:10;;;;;;;;;;;;;;;;;;5092293;28;19915;-66
2022/09/26 08:48:20;;;;;;;;;;;;;;;;;;5093007;28;19965;-66
2022/09/26 08:50:45;;;;;;;;;;;;;;;;;;5091942;28;20145;-66
2022/09/26 08:53:10;;;;;;;;;;;;;;;;;;5093759;28;20275;-66
2022/09/26 08:55:36;;;;;;;;;;;;;;;;;;5092381;28;20003;-66
2022/09/26 08:58:01;;;;;;;;;;;;;;;;;;5093573;28;20288;-66
2022/09/26 09:00:26;;;;;;;;;;;;;;;;;;5093022;28;19908;-66
2022/09/26 09:02:51;;;;;;;;;;;;;;;;;;5087022;28;20364;-66
2022/09/26 09:05:16;;;;;;;;;;;;;;;;;;5091963;28;19920;-66
2022/09/26 09:07:41;;;;;;;;;;;;;;;;;;5092754;28;19908;-66
2022/09/26 09:10:07;;;;;;;;;;;;;;;;;;5090837;28;20455;-66
2022/09/26 09:12:32;;;;;;;;;;;;;;;;;;5093349;28;20295;-66
2022/09/26 09:14:57;;;;;;;;;;;;;;;;;;5092323;28;19912;-66
2022/09/26 09:17:22;;;;;;;;;;;;;;;;;;5091524;28;20391;-65
2022/09/26 09:19:47;;;;;;;;;;;;;;;;;;5092375;28;19985;-66
2022/09/26 09:22:12;;;;;;;;;;;;;;;;;;5093307;28;19915;-66
2022/09/26 09:24:37;;;;;;;;;;;;;;;;;;5092515;28;19916;-66
2022/09/26 09:27:03;;;;;;;;;;;;;;;;;;5092679;28;19912;-67
2022/09/26 09:29:28;;;;;;;;;;;;;;;;;;5092571;28;19954;-67
2022/09/26 09:31:53;;;;;;;;;;;;;;;;;;5092670;28;19915;-67
2022/09/26 09:34:18;;;;;;;;;;;;;;;;;;5090262;28;19913;-67
2022/09/26 09:36:43;;;;;;;;;;;;;;;;;;5090992;28;19914;-67
2022/09/26 09:39:08;;;;;;;;;;;;;;;;;;5092477;28;20023;-66
2022/09/26 09:41:33;;;;;;;;;;;;;;;;;;5093221;28;21225;-67
2022/09/26 09:43:58;;;;;;;;;;;;;;;;;;5090760;28;20605;-67
2022/09/26 09:46:27;;;;;;;;;;;;;;;;;;5088722;28;19912;-66
2022/09/26 09:48:52;;;;;;;;;;;;;;;;;;5090870;28;20369;-67
2022/09/26 09:51:17;;;;;;;;;;;;;;;;;;5091627;28;19931;-67
2022/09/26 09:53:43;;;;;;;;;;;;;;;;;;5089990;28;19908;-67
2022/09/26 09:56:08;;;;;;;;;;;;;;;;;;5087328;28;19924;-67
2022/09/26 09:58:33;;;;;;;;;;;;;;;;;;5093640;28;19939;-67
2022/09/26 10:00:58;;;;;;;;;;;;;;;;;;5073214;28;20411;-67
2022/09/26 10:03:23;;;;;;;;;;;;;;;;;;5091989;28;19954;-67
2022/09/26 10:05:50;;;;;;;;;;;;;;;;;;5090441;28;19915;-67
2022/09/26 10:08:16;;;;;;;;;;;;;;;;;;5086256;28;19919;-67
2022/09/26 10:10:41;;;;;;;;;;;;;;;;;;5089860;28;19916;-67
2022/09/26 10:13:09;;;;;;;;;;;;;;;;;;5088799;28;19966;-67
2022/09/26 10:15:35;;;;;;;;;;;;;;;;;;5084951;28;20002;-67
2022/09/26 10:18:00;;;;;;;;;;;;;;;;;;5090531;28;20007;-67
2022/09/26 10:20:26;;;;;;;;;;;;;;;;;;5091255;28;19966;-67
2022/09/26 10:22:51;;;;;;;;;;;;;;;;;;5092113;28;19946;-66
2022/09/26 10:25:16;;;;;;;;;;;;;;;;;;5091868;28;19912;-67
2022/09/26 10:27:41;;;;;;;;;;;;;;;;;;5086773;28;19920;-66
2022/09/26 10:30:08;;;;;;;;;;;;;;;;;;5092060;28;19913;-66
2022/09/26 10:32:33;;;;;;;;;;;;;;;;;;5091206;28;19912;-67
2022/09/26 10:34:59;;;;;;;;;;;;;;;;;;5087446;28;19920;-67
2022/09/26 10:37:24;;;;;;;;;;;;;;;;;;5090065;28;20045;-67
2022/09/26 10:42:34;;;;;;;;;;;;;;;;;;5088026;28;19927;-67
2022/09/26 10:44:59;;;;;;;;;;;;;;;;;;5084510;28;19912;-67
2022/09/26 10:47:24;;;;;;;;;;;;;;;;;;5088809;28;20364;-66
2022/09/26 10:49:53;;;;;;;;;;;;;;;;;;5085952;28;19920;-66
2022/09/26 10:52:18;;;;;;;;;;;;;;;;;;5089423;28;19927;-66
2022/09/26 10:54:44;;;;;;;;;;;;;;;;;;5084297;28;19912;-67
2022/09/26 10:57:09;;;;;;;;;;;;;;;;;;5090956;28;19912;-67
2022/09/26 10:59:35;;;;;;;;;;;;;;;;;;5084748;28;19986;-67
2022/09/26 11:02:02;;;;;;;;;;;;;;;;;;5083612;28;20455;-67
2022/09/26 11:07:11;;;;;;;;;;;;;;;;;;5089103;28;19927;-66
2022/09/26 11:09:37;;;;;;;;;;;;;;;;;;5091217;28;19916;-66
2022/09/26 11:12:02;;;;;;;;;;;;;;;;;;5086593;28;20354;-67
2022/09/26 11:14:28;;;;;;;;;;;;;;;;;;5091053;28;19914;-66
2022/09/26 11:16:53;;;;;;;;;;;;;;;;;;5088826;28;19915;-66
2022/09/26 11:19:19;;;;;;;;;;;;;;;;;;5088247;28;20356;-67
2022/09/26 11:21:44;;;;;;;;;;;;;;;;;;5090747;28;19958;-66
2022/09/26 11:24:10;;;;;;;;;;;;;;;;;;5088782;28;19935;-67
2022/09/26 11:26:35;;;;;;;;;;;;;;;;;;5090893;28;19944;-66
2022/09/26 11:29:02;;;;;;;;;;;;;;;;;;5089352;28;20010;-67
2022/09/26 11:31:27;;;;;;;;;;;;;;;;;;5087200;28;19912;-66
2022/09/26 11:33:53;;;;;;;;;;;;;;;;;;5089949;28;19916;-66
2022/09/26 11:36:18;;;;;;;;;;;;;;;;;;5089226;28;19994;-66
2022/09/26 11:38:45;;;;;;;;;;;;;;;;;;5091019;28;19908;-67
2022/09/26 11:41:10;;;;;;;;;;;;;;;;;;5088648;28;19916;-66
2022/09/26 11:43:35;;;;;;;;;;;;;;;;;;5087761;28;19912;-67
2022/09/26 11:46:03;;;;;;;;;;;;;;;;;;5088832;28;19920;-66
2022/09/26 11:48:28;;;;;;;;;;;;;;;;;;5090448;28;20360;-68
2022/09/26 11:50:53;;;;;;;;;;;;;;;;;;5086601;28;19920;-67
2022/09/26 11:53:18;;;;;;;;;;;;;;;;;;5089824;28;20375;-67
2022/09/26 11:55:44;;;;;;;;;;;;;;;;;;5089309;28;19908;-67
2022/09/26 11:58:09;;;;;;;;;;;;;;;;;;5088709;28;19908;-68
2022/09/26 12:00:34;;;;;;;;;;;;;;;;;;5088544;28;20574;-67
2022/09/26 12:02:59;;;;;;;;;;;;;;;;;;5071463;28;19916;-68
2022/09/26 12:05:24;;;;;;;;;;;;;;;;;;5087104;28;19961;-68
2022/09/26 12:07:50;;;;;;;;;;;;;;;;;;5091795;28;19908;-67
2022/09/26 12:10:15;;;;;;;;;;;;;;;;;;5088240;28;19920;-68
2022/09/26 12:12:41;;;;;;;;;;;;;;;;;;5090278;28;19919;-68
2022/09/26 12:15:07;;;;;;;;;;;;;;;;;;5086232;28;19916;-68
2022/09/26 12:17:35;;;;;;;;;;;;;;;;;;5088334;28;19929;-68
2022/09/26 12:20:00;;;;;;;;;;;;;;;;;;5090573;28;19908;-68
2022/09/26 12:22:28;;;;;;;;;;;;;;;;;;5090497;28;20371;-68
2022/09/26 12:24:54;;;;;;;;;;;;;;;;;;5089663;28;19915;-68
2022/09/26 12:27:19;;;;;;;;;;;;;;;;;;5088830;28;20257;-68
2022/09/26 12:29:44;;;;;;;;;;;;;;;;;;5088285;28;20303;-68
2022/09/26 12:32:13;;;;;;;;;;;;;;;;;;5090670;28;20034;-68
2022/09/26 12:34:38;;;;;;;;;;;;;;;;;;5088470;28;19958;-68
2022/09/26 12:37:03;;;;;;;;;;;;;;;;;;5070603;28;19937;-68
2022/09/26 12:39:28;;;;;;;;;;;;;;;;;;5090196;28;19915;-67
2022/09/26 12:41:53;;;;;;;;;;;;;;;;;;5087155;28;19919;-68
2022/09/26 12:44:21;;;;;;;;;;;;;;;;;;5088733;28;19915;-68
2022/09/26 12:46:46;;;;;;;;;;;;;;;;;;5089228;28;19939;-68
2022/09/26 12:49:11;;;;;;;;;;;;;;;;;;5084975;28;19916;-68
2022/09/26 12:51:36;;;;;;;;;;;;;;;;;;5089084;28;19919;-68
2022/09/26 12:54:02;;;;;;;;;;;;;;;;;;5089034;28;19916;-68
2022/09/26 12:56:29;;;;;;;;;;;;;;;;;;5089692;28;19908;-68
2022/09/26 12:58:56;;;;;;;;;;;;;;;;;;5084826;28;19913;-69
2022/09/26 13:01:22;;;;;;;;;;;;;;;;;;5084074;28;19963;-69
2022/09/26 13:03:47;;;;;;;;;;;;;;;;;;5089814;28;20356;-69
2022/09/26 13:06:12;;;;;;;;;;;;;;;;;;5091886;28;20007;-69
2022/09/26 13:08:37;;;;;;;;;;;;;;;;;;5087941;28;19919;-70
2022/09/26 13:11:02;;;;;;;;;;;;;;;;;;5094768;28;19916;-68
2022/09/26 13:13:28;;;;;;;;;;;;;;;;;;5090607;28;19912;-69
2022/09/26 13:15:54;;;;;;;;;;;;;;;;;;5090093;28;19920;-69
2022/09/26 13:18:19;;;;;;;;;;;;;;;;;;5087709;28;19962;-67
2022/09/26 13:20:44;;;;;;;;;;;;;;;;;;5093351;28;20357;-68
2022/09/26 13:23:09;;;;;;;;;;;;;;;;;;5092083;28;19912;-68
2022/09/26 13:25:34;;;;;;;;;;;;;;;;;;5086593;28;20617;-68
2022/09/26 13:28:05;;;;;;;;;;;;;;;;;;5090072;28;19951;-68
2022/09/26 13:30:34;;;;;;;;;;;;;;;;;;5081841;28;20392;-68
2022/09/26 13:32:59;;;;;;;;;;;;;;;;;;5088489;28;20424;-68
2022/09/26 13:35:24;;;;;;;;;;;;;;;;;;5082556;28;20003;-68
2022/09/26 13:37:51;;;;;;;;;;;;;;;;;;5082703;28;19912;-69
2022/09/26 13:40:16;;;;;;;;;;;;;;;;;;5083468;28;19920;-69
2022/09/26 13:42:41;;;;;;;;;;;;;;;;;;5075314;28;19928;-68
2022/09/26 13:45:07;;;;;;;;;;;;;;;;;;5064302;28;20656;-69
2022/09/26 13:47:32;;;;;;;;;;;;;;;;;;5066331;28;19954;-69
2022/09/26 13:49:57;;;;;;;;;;;;;;;;;;5066745;28;19916;-68
2022/09/26 13:52:22;;;;;;;;;;;;;;;;;;5063390;28;20530;-69
2022/09/26 13:54:47;;;;;;;;;;;;;;;;;;5063221;28;19927;-68
2022/09/26 13:57:13;;;;;;;;;;;;;;;;;;5065793;28;19935;-69
2022/09/26 13:59:38;;;;;;;;;;;;;;;;;;5064798;28;19921;-69
2022/09/26 14:02:04;;;;;;;;;;;;;;;;;;5083562;28;19942;-69
2022/09/26 14:04:29;;;;;;;;;;;;;;;;;;5091249;28;19943;-69
2022/09/26 14:06:54;;;;;;;;;;;;;;;;;;5071817;28;20344;-69
2022/09/26 14:09:22;;;;;;;;;;;;;;;;;;5074526;28;19931;-68
2022/09/26 14:11:48;;;;;;;;;;;;;;;;;;5064585;28;19920;-69
2022/09/26 14:14:17;;;;;;;;;;;;;;;;;;5066443;28;19920;-69
2022/09/26 14:16:42;;;;;;;;;;;;;;;;;;5062409;28;19917;-68
2022/09/26 14:19:08;;;;;;;;;;;;;;;;;;5070085;28;19919;-69
2022/09/26 14:21:33;;;;;;;;;;;;;;;;;;5073127;28;19923;-68
2022/09/26 14:24:00;;;;;;;;;;;;;;;;;;5086019;28;20490;-68
2022/09/26 14:26:26;;;;;;;;;;;;;;;;;;5091454;28;20046;-67
2022/09/26 14:28:51;;;;;;;;;;;;;;;;;;5074767;28;20432;-67
2022/09/26 14:31:16;;;;;;;;;;;;;;;;;;5067715;28;20058;-68
2022/09/26 14:33:41;;;;;;;;;;;;;;;;;;5061176;28;19935;-68
2022/09/26 14:36:07;;;;;;;;;;;;;;;;;;5062786;28;20003;-68
2022/09/26 14:38:32;;;;;;;;;;;;;;;;;;5065889;28;19980;-68
2022/09/26 14:40:57;;;;;;;;;;;;;;;;;;5067982;28;19979;-67
2022/09/26 14:43:22;;;;;;;;;;;;;;;;;;5062028;28;19923;-68
2022/09/26 14:45:47;;;;;;;;;;;;;;;;;;5062992;28;19920;-68
2022/09/26 14:48:12;;;;;;;;;;;;;;;;;;5068190;28;19916;-67
2022/09/26 14:50:37;;;;;;;;;;;;;;;;;;5089704;28;19966;-68
2022/09/26 14:53:03;;;;;;;;;;;;;;;;;;5090296;28;19916;-68
2022/09/26 14:55:28;;;;;;;;;;;;;;;;;;5087365;28;19966;-68
2022/09/26 14:57:53;;;;;;;;;;;;;;;;;;5083652;28;19962;-67
2022/09/26 15:00:18;;;;;;;;;;;;;;;;;;5085135;28;19952;-67
2022/09/26 15:02:45;;;;;;;;;;;;;;;;;;5090402;28;19916;-68
2022/09/26 15:05:10;;;;;;;;;;;;;;;;;;5083695;28;19920;-69
2022/09/26 15:07:35;;;;;;;;;;;;;;;;;;5093384;28;19908;-68
2022/09/26 15:10:00;;;;;;;;;;;;;;;;;;5088531;28;19916;-68
2022/09/26 15:12:28;;;;;;;;;;;;;;;;;;5089324;28;20427;-68
2022/09/26 15:14:53;;;;;;;;;;;;;;;;;;5087784;28;19920;-67
2022/09/26 15:17:18;;;;;;;;;;;;;;;;;;5083754;28;19919;-68
2022/09/26 15:19:44;;;;;;;;;;;;;;;;;;5086410;28;19916;-67
2022/09/26 15:22:11;;;;;;;;;;;;;;;;;;5085640;28;19992;-67
2022/09/26 15:24:36;;;;;;;;;;;;;;;;;;5088046;28;20252;-67
2022/09/26 15:27:02;;;;;;;;;;;;;;;;;;5091545;28;20389;-67
2022/09/26 15:29:27;;;;;;;;;;;;;;;;;;5082849;28;19966;-67
2022/09/26 15:31:54;;;;;;;;;;;;;;;;;;5090736;28;20276;-67
2022/09/26 15:34:19;;;;;;;;;;;;;;;;;;5088513;28;19911;-67
2022/09/26 15:36:44;;;;;;;;;;;;;;;;;;5080566;28;19967;-67
2022/09/26 15:39:10;;;;;;;;;;;;;;;;;;5080275;28;19916;-67
2022/09/26 15:44:19;;;;;;;;;;;;;;;;;;5085172;28;20065;-67
2022/09/26 15:46:45;;;;;;;;;;;;;;;;;;5086361;28;19934;-67
2022/09/26 15:49:11;;;;;;;;;;;;;;;;;;5086834;28;19939;-67
2022/09/26 15:51:37;;;;;;;;;;;;;;;;;;5086013;28;19912;-67
2022/09/26 15:54:02;;;;;;;;;;;;;;;;;;5089097;28;19938;-68
2022/09/26 15:56:28;;;;;;;;;;;;;;;;;;5087522;28;19912;-67
2022/09/26 15:58:53;;;;;;;;;;;;;;;;;;5087206;28;20350;-67
2022/09/26 16:01:18;;;;;;;;;;;;;;;;;;5083519;28;19999;-67
2022/09/26 16:03:46;;;;;;;;;;;;;;;;;;5086124;28;19924;-68
2022/09/26 16:06:11;;;;;;;;;;;;;;;;;;5083670;28;19927;-68
2022/09/26 16:08:36;;;;;;;;;;;;;;;;;;5090818;28;19920;-67
2022/09/26 16:11:02;;;;;;;;;;;;;;;;;;5089131;28;19916;-68
2022/09/26 16:13:27;;;;;;;;;;;;;;;;;;5089723;28;19915;-68
2022/09/26 16:15:52;;;;;;;;;;;;;;;;;;5089361;28;19966;-68
2022/09/26 16:18:17;;;;;;;;;;;;;;;;;;5089729;28;19962;-67
2022/09/26 16:20:42;;;;;;;;;;;;;;;;;;5089504;28;19908;-68
2022/09/26 16:23:07;;;;;;;;;;;;;;;;;;5087671;28;19955;-67
2022/09/26 16:25:33;;;;;;;;;;;;;;;;;;5088584;28;19912;-67
2022/09/26 16:27:58;;;;;;;;;;;;;;;;;;5088812;28;19912;-67
2022/09/26 16:30:27;;;;;;;;;;;;;;;;;;5089025;28;19916;-68
2022/09/26 16:32:52;;;;;;;;;;;;;;;;;;5089549;28;20470;-68
2022/09/26 16:35:20;;;;;;;;;;;;;;;;;;5085369;28;19995;-67
2022/09/26 16:37:45;;;;;;;;;;;;;;;;;;5091010;28;19978;-68
2022/09/26 16:40:10;;;;;;;;;;;;;;;;;;5090385;28;20411;-69
2022/09/26 16:42:35;;;;;;;;;;;;;;;;;;5093089;28;20010;-68
2022/09/26 16:45:00;;;;;;;;;;;;;;;;;;5093294;28;20009;-67
2022/09/26 16:47:28;;;;;;;;;;;;;;;;;;5094587;28;19908;-69
2022/09/26 16:49:53;;;;;;;;;;;;;;;;;;5092345;28;20241;-68
2022/09/26 16:52:19;;;;;;;;;;;;;;;;;;5090631;28;20394;-68
2022/09/26 16:54:44;;;;;;;;;;;;;;;;;;5081684;28;19923;-68